sensor_id;sensor_type;location;lat;lon;timestamp;temperature;humidity
44671;DHT22;48397;53.016;-2.260;2023-03-13T00:01:43;11.00;99.90
44671;DHT22;48397;53.016;-2.260;2023-03-13T00:04:11;11.00;99.90
44671;DHT22;48397;53.016;-2.260;2023-03-13T00:06:40;11.10;99.90
44671;DHT22;48397;53.016;-2.260;2023-03-13T00:09:10;11.10;99.90
44671;DHT22;48397;53.016;-2.260;2023-03-13T00:11:38;11.10;99.90
44671;DHT22;48397;53.016;-2.260;2023-03-13T00:14:07;11.10;99.90
44671;DHT22;48397;53.016;-2.260;2023-03-13T00:16:35;11.10;99.90
44671;DHT22;48397;53.016;-2.260;2023-03-13T00:19:05;11.10;99.90
44671;DHT22;48397;53.016;-2.260;2023-03-13T00:21:34;11.20;99.90
44671;DHT22;48397;53.016;-2.260;2023-03-13T00:26:32;11.20;99.90
44671;DHT22;48397;53.016;-2.260;2023-03-13T00:29:00;11.20;99.90
44671;DHT22;48397;53.016;-2.260;2023-03-13T00:31:30;11.20;99.90
44671;DHT22;48397;53.016;-2.260;2023-03-13T00:34:02;11.20;99.90
44671;DHT22;48397;53.016;-2.260;2023-03-13T00:36:32;11.20;99.90
44671;DHT22;48397;53.016;-2.260;2023-03-13T00:39:02;11.20;99.90
44671;DHT22;48397;53.016;-2.260;2023-03-13T00:41:31;11.20;99.90
44671;DHT22;48397;53.016;-2.260;2023-03-13T00:43:59;11.10;99.90
44671;DHT22;48397;53.016;-2.260;2023-03-13T00:46:30;11.20;99.90
44671;DHT22;48397;53.016;-2.260;2023-03-13T00:48:58;11.10;99.90
44671;DHT22;48397;53.016;-2.260;2023-03-13T00:51:27;11.10;99.90
44671;DHT22;48397;53.016;-2.260;2023-03-13T00:53:56;11.20;99.90
44671;DHT22;48397;53.016;-2.260;2023-03-13T00:56:27;11.20;99.90
44671;DHT22;48397;53.016;-2.260;2023-03-13T00:58:54;11.20;99.90
44671;DHT22;48397;53.016;-2.260;2023-03-13T01:01:24;11.20;99.90
44671;DHT22;48397;53.016;-2.260;2023-03-13T01:04:09;11.30;99.90
44671;DHT22;48397;53.016;-2.260;2023-03-13T01:06:39;11.30;99.90
44671;DHT22;48397;53.016;-2.260;2023-03-13T01:09:13;11.30;99.90
44671;DHT22;48397;53.016;-2.260;2023-03-13T01:11:42;11.30;99.90
44671;DHT22;48397;53.016;-2.260;2023-03-13T01:14:15;11.30;99.90
44671;DHT22;48397;53.016;-2.260;2023-03-13T01:16:44;11.30;99.90
44671;DHT22;48397;53.016;-2.260;2023-03-13T01:19:14;11.30;99.90
44671;DHT22;48397;53.016;-2.260;2023-03-13T01:21:44;11.30;99.90
44671;DHT22;48397;53.016;-2.260;2023-03-13T01:24:12;9.90;99.90
44671;DHT22;48397;53.016;-2.260;2023-03-13T01:29:08;11.30;99.90
44671;DHT22;48397;53.016;-2.260;2023-03-13T01:31:36;11.20;99.90
44671;DHT22;48397;53.016;-2.260;2023-03-13T01:34:07;11.30;99.90
44671;DHT22;48397;53.016;-2.260;2023-03-13T01:36:36;11.30;99.90
44671;DHT22;48397;53.016;-2.260;2023-03-13T01:39:04;11.40;99.90
44671;DHT22;48397;53.016;-2.260;2023-03-13T01:41:32;11.30;99.90
44671;DHT22;48397;53.016;-2.260;2023-03-13T01:44:00;11.40;99.90
44671;DHT22;48397;53.016;-2.260;2023-03-13T01:46:32;11.40;99.90
44671;DHT22;48397;53.016;-2.260;2023-03-13T01:49:29;11.50;99.90
44671;DHT22;48397;53.016;-2.260;2023-03-13T01:52:21;11.50;99.90
44671;DHT22;48397;53.016;-2.260;2023-03-13T01:55:08;11.50;99.90
44671;DHT22;48397;53.016;-2.260;2023-03-13T01:57:45;11.50;99.90
44671;DHT22;48397;53.016;-2.260;2023-03-13T02:00:20;11.50;99.90
44671;DHT22;48397;53.016;-2.260;2023-03-13T02:02:51;11.60;99.90
44671;DHT22;48397;53.016;-2.260;2023-03-13T02:05:24;11.60;99.90
44671;DHT22;48397;53.016;-2.260;2023-03-13T02:10:33;11.60;99.90
44671;DHT22;48397;53.016;-2.260;2023-03-13T02:13:05;11.70;99.90
44671;DHT22;48397;53.016;-2.260;2023-03-13T02:15:33;11.60;99.90
44671;DHT22;48397;53.016;-2.260;2023-03-13T02:18:01;11.60;99.90
44671;DHT22;48397;53.016;-2.260;2023-03-13T02:23:13;11.70;99.90
44671;DHT22;48397;53.016;-2.260;2023-03-13T02:25:49;11.70;99.90
44671;DHT22;48397;53.016;-2.260;2023-03-13T02:28:26;11.70;99.90
44671;DHT22;48397;53.016;-2.260;2023-03-13T02:30:56;11.80;99.90
44671;DHT22;48397;53.016;-2.260;2023-03-13T02:33:28;11.80;99.90
44671;DHT22;48397;53.016;-2.260;2023-03-13T02:35:58;11.80;99.90
44671;DHT22;48397;53.016;-2.260;2023-03-13T02:38:30;11.80;99.90
44671;DHT22;48397;53.016;-2.260;2023-03-13T02:41:00;11.80;99.90
44671;DHT22;48397;53.016;-2.260;2023-03-13T02:43:34;11.90;99.90
44671;DHT22;48397;53.016;-2.260;2023-03-13T02:46:15;11.80;99.90
44671;DHT22;48397;53.016;-2.260;2023-03-13T02:48:52;11.90;99.90
44671;DHT22;48397;53.016;-2.260;2023-03-13T02:53:51;11.90;99.90
44671;DHT22;48397;53.016;-2.260;2023-03-13T02:56:23;11.90;99.90
44671;DHT22;48397;53.016;-2.260;2023-03-13T02:58:53;11.90;99.90
44671;DHT22;48397;53.016;-2.260;2023-03-13T03:01:23;11.90;99.90
44671;DHT22;48397;53.016;-2.260;2023-03-13T03:03:51;12.00;99.90
44671;DHT22;48397;53.016;-2.260;2023-03-13T03:06:19;12.00;99.90
44671;DHT22;48397;53.016;-2.260;2023-03-13T03:08:48;12.00;99.90
44671;DHT22;48397;53.016;-2.260;2023-03-13T03:11:16;12.00;99.90
44671;DHT22;48397;53.016;-2.260;2023-03-13T03:13:49;12.00;99.90
44671;DHT22;48397;53.016;-2.260;2023-03-13T03:16:17;12.00;99.90
44671;DHT22;48397;53.016;-2.260;2023-03-13T03:18:45;12.00;99.90
44671;DHT22;48397;53.016;-2.260;2023-03-13T03:21:13;12.00;99.90
44671;DHT22;48397;53.016;-2.260;2023-03-13T03:23:41;12.00;99.90
44671;DHT22;48397;53.016;-2.260;2023-03-13T03:26:09;11.90;99.90
44671;DHT22;48397;53.016;-2.260;2023-03-13T03:28:38;11.90;99.90
44671;DHT22;48397;53.016;-2.260;2023-03-13T03:31:12;11.90;99.90
44671;DHT22;48397;53.016;-2.260;2023-03-13T03:33:42;12.00;99.90
44671;DHT22;48397;53.016;-2.260;2023-03-13T03:36:14;12.00;99.90
44671;DHT22;48397;53.016;-2.260;2023-03-13T03:38:44;12.10;99.90
44671;DHT22;48397;53.016;-2.260;2023-03-13T03:41:15;12.10;99.90
44671;DHT22;48397;53.016;-2.260;2023-03-13T03:43:44;12.10;99.90
44671;DHT22;48397;53.016;-2.260;2023-03-13T03:46:16;12.10;99.90
44671;DHT22;48397;53.016;-2.260;2023-03-13T03:51:13;12.10;99.90
44671;DHT22;48397;53.016;-2.260;2023-03-13T03:53:43;12.00;99.90
44671;DHT22;48397;53.016;-2.260;2023-03-13T03:56:11;12.00;99.90
44671;DHT22;48397;53.016;-2.260;2023-03-13T03:58:45;12.00;99.90
44671;DHT22;48397;53.016;-2.260;2023-03-13T04:01:35;12.00;99.90
44671;DHT22;48397;53.016;-2.260;2023-03-13T04:04:04;12.00;99.90
44671;DHT22;48397;53.016;-2.260;2023-03-13T04:06:32;12.00;99.90
44671;DHT22;48397;53.016;-2.260;2023-03-13T04:09:02;11.90;99.90
44671;DHT22;48397;53.016;-2.260;2023-03-13T04:11:30;11.90;99.90
44671;DHT22;48397;53.016;-2.260;2023-03-13T04:13:58;11.90;99.90
44671;DHT22;48397;53.016;-2.260;2023-03-13T04:16:26;11.90;99.90
44671;DHT22;48397;53.016;-2.260;2023-03-13T04:18:55;11.90;99.90
44671;DHT22;48397;53.016;-2.260;2023-03-13T04:21:25;11.90;99.90
44671;DHT22;48397;53.016;-2.260;2023-03-13T04:23:58;12.00;99.90
44671;DHT22;48397;53.016;-2.260;2023-03-13T04:26:26;12.00;99.90
44671;DHT22;48397;53.016;-2.260;2023-03-13T04:28:56;12.00;99.90
44671;DHT22;48397;53.016;-2.260;2023-03-13T04:31:40;12.00;99.90
44671;DHT22;48397;53.016;-2.260;2023-03-13T04:34:28;11.90;99.90
44671;DHT22;48397;53.016;-2.260;2023-03-13T04:37:24;11.90;99.90
44671;DHT22;48397;53.016;-2.260;2023-03-13T04:39:58;11.90;99.90
44671;DHT22;48397;53.016;-2.260;2023-03-13T04:42:44;11.90;99.90
44671;DHT22;48397;53.016;-2.260;2023-03-13T04:45:35;11.90;99.90
44671;DHT22;48397;53.016;-2.260;2023-03-13T04:51:23;11.90;99.90
44671;DHT22;48397;53.016;-2.260;2023-03-13T04:54:11;11.90;99.90
44671;DHT22;48397;53.016;-2.260;2023-03-13T04:59:48;11.80;99.90
44671;DHT22;48397;53.016;-2.260;2023-03-13T05:02:44;11.80;99.90
44671;DHT22;48397;53.016;-2.260;2023-03-13T05:05:27;11.90;99.90
44671;DHT22;48397;53.016;-2.260;2023-03-13T05:08:10;11.90;99.90
44671;DHT22;48397;53.016;-2.260;2023-03-13T05:10:38;12.00;99.90
44671;DHT22;48397;53.016;-2.260;2023-03-13T05:13:32;12.00;99.90
44671;DHT22;48397;53.016;-2.260;2023-03-13T05:16:14;12.10;99.90
44671;DHT22;48397;53.016;-2.260;2023-03-13T05:19:14;12.10;99.90
44671;DHT22;48397;53.016;-2.260;2023-03-13T05:22:00;12.10;99.90
44671;DHT22;48397;53.016;-2.260;2023-03-13T05:24:53;12.20;99.90
44671;DHT22;48397;53.016;-2.260;2023-03-13T05:27:52;12.20;99.90
44671;DHT22;48397;53.016;-2.260;2023-03-13T05:30:46;12.20;99.90
44671;DHT22;48397;53.016;-2.260;2023-03-13T05:33:32;12.20;99.90
44671;DHT22;48397;53.016;-2.260;2023-03-13T05:36:33;12.20;99.90
44671;DHT22;48397;53.016;-2.260;2023-03-13T05:39:33;12.20;99.90
44671;DHT22;48397;53.016;-2.260;2023-03-13T05:42:22;12.10;99.90
44671;DHT22;48397;53.016;-2.260;2023-03-13T05:45:07;12.10;99.90
44671;DHT22;48397;53.016;-2.260;2023-03-13T05:47:59;12.10;99.90
44671;DHT22;48397;53.016;-2.260;2023-03-13T05:50:33;12.00;99.90
44671;DHT22;48397;53.016;-2.260;2023-03-13T05:53:04;12.00;99.90
44671;DHT22;48397;53.016;-2.260;2023-03-13T05:55:39;12.00;99.90
44671;DHT22;48397;53.016;-2.260;2023-03-13T05:58:35;11.80;99.90
44671;DHT22;48397;53.016;-2.260;2023-03-13T06:01:31;11.80;99.90
44671;DHT22;48397;53.016;-2.260;2023-03-13T06:04:08;11.80;99.90
44671;DHT22;48397;53.016;-2.260;2023-03-13T06:06:38;11.70;99.90
44671;DHT22;48397;53.016;-2.260;2023-03-13T06:09:06;11.60;99.90
44671;DHT22;48397;53.016;-2.260;2023-03-13T06:11:34;11.50;99.90
44671;DHT22;48397;53.016;-2.260;2023-03-13T06:14:04;11.50;99.90
44671;DHT22;48397;53.016;-2.260;2023-03-13T06:16:38;11.40;99.90
44671;DHT22;48397;53.016;-2.260;2023-03-13T06:19:17;10.00;99.90
44671;DHT22;48397;53.016;-2.260;2023-03-13T06:21:45;11.20;99.90
44671;DHT22;48397;53.016;-2.260;2023-03-13T06:24:13;11.10;99.90
44671;DHT22;48397;53.016;-2.260;2023-03-13T06:26:41;11.00;99.90
44671;DHT22;48397;53.016;-2.260;2023-03-13T06:29:10;11.10;99.90
44671;DHT22;48397;53.016;-2.260;2023-03-13T06:31:39;11.10;99.90
44671;DHT22;48397;53.016;-2.260;2023-03-13T06:34:09;11.10;99.90
44671;DHT22;48397;53.016;-2.260;2023-03-13T06:36:37;11.20;99.90
44671;DHT22;48397;53.016;-2.260;2023-03-13T06:39:05;11.10;99.90
44671;DHT22;48397;53.016;-2.260;2023-03-13T06:41:33;11.20;99.90
44671;DHT22;48397;53.016;-2.260;2023-03-13T06:44:00;11.20;99.90
44671;DHT22;48397;53.016;-2.260;2023-03-13T06:46:28;11.20;99.90
44671;DHT22;48397;53.016;-2.260;2023-03-13T06:48:57;11.10;99.90
44671;DHT22;48397;53.016;-2.260;2023-03-13T06:51:26;11.00;99.90
44671;DHT22;48397;53.016;-2.260;2023-03-13T06:53:54;10.80;99.90
44671;DHT22;48397;53.016;-2.260;2023-03-13T06:56:22;10.80;99.90
44671;DHT22;48397;53.016;-2.260;2023-03-13T06:58:50;10.70;99.90
44671;DHT22;48397;53.016;-2.260;2023-03-13T07:01:18;10.60;99.90
44671;DHT22;48397;53.016;-2.260;2023-03-13T07:03:46;10.50;99.90
44671;DHT22;48397;53.016;-2.260;2023-03-13T07:06:15;10.40;99.90
44671;DHT22;48397;53.016;-2.260;2023-03-13T07:08:43;10.30;99.90
44671;DHT22;48397;53.016;-2.260;2023-03-13T07:11:13;10.20;99.90
44671;DHT22;48397;53.016;-2.260;2023-03-13T07:13:41;10.20;99.90
44671;DHT22;48397;53.016;-2.260;2023-03-13T07:16:11;10.20;99.90
44671;DHT22;48397;53.016;-2.260;2023-03-13T07:18:40;10.20;99.90
44671;DHT22;48397;53.016;-2.260;2023-03-13T07:21:09;10.10;99.90
44671;DHT22;48397;53.016;-2.260;2023-03-13T07:26:06;10.00;99.90
44671;DHT22;48397;53.016;-2.260;2023-03-13T07:28:34;10.00;99.90
44671;DHT22;48397;53.016;-2.260;2023-03-13T07:31:15;10.00;99.90
44671;DHT22;48397;53.016;-2.260;2023-03-13T07:33:44;10.00;99.90
44671;DHT22;48397;53.016;-2.260;2023-03-13T07:36:13;10.00;99.90
44671;DHT22;48397;53.016;-2.260;2023-03-13T07:38:42;10.00;99.90
44671;DHT22;48397;53.016;-2.260;2023-03-13T07:41:11;10.00;99.90
44671;DHT22;48397;53.016;-2.260;2023-03-13T07:43:40;9.90;99.90
44671;DHT22;48397;53.016;-2.260;2023-03-13T07:46:08;9.90;99.90
44671;DHT22;48397;53.016;-2.260;2023-03-13T07:48:39;9.90;99.90
44671;DHT22;48397;53.016;-2.260;2023-03-13T07:51:14;9.90;99.90
44671;DHT22;48397;53.016;-2.260;2023-03-13T07:53:44;10.10;99.90
44671;DHT22;48397;53.016;-2.260;2023-03-13T07:56:16;10.10;99.90
44671;DHT22;48397;53.016;-2.260;2023-03-13T07:58:44;10.10;99.90
44671;DHT22;48397;53.016;-2.260;2023-03-13T08:01:24;10.20;99.90
44671;DHT22;48397;53.016;-2.260;2023-03-13T08:03:57;10.20;99.90
44671;DHT22;48397;53.016;-2.260;2023-03-13T08:06:29;10.20;99.90
44671;DHT22;48397;53.016;-2.260;2023-03-13T08:09:00;10.20;99.90
44671;DHT22;48397;53.016;-2.260;2023-03-13T08:11:28;10.30;99.90
44671;DHT22;48397;53.016;-2.260;2023-03-13T08:13:57;10.30;99.90
44671;DHT22;48397;53.016;-2.260;2023-03-13T08:16:27;10.30;99.90
44671;DHT22;48397;53.016;-2.260;2023-03-13T08:18:57;10.30;99.90
44671;DHT22;48397;53.016;-2.260;2023-03-13T08:21:28;10.30;99.90
44671;DHT22;48397;53.016;-2.260;2023-03-13T08:23:59;10.40;99.90
44671;DHT22;48397;53.016;-2.260;2023-03-13T08:26:28;10.30;99.90
44671;DHT22;48397;53.016;-2.260;2023-03-13T08:29:02;10.30;99.90
44671;DHT22;48397;53.016;-2.260;2023-03-13T08:31:33;10.30;99.90
44671;DHT22;48397;53.016;-2.260;2023-03-13T08:34:01;10.20;99.90
44671;DHT22;48397;53.016;-2.260;2023-03-13T08:36:36;10.20;99.90
44671;DHT22;48397;53.016;-2.260;2023-03-13T08:39:06;10.20;99.90
44671;DHT22;48397;53.016;-2.260;2023-03-13T08:41:36;10.20;99.90
44671;DHT22;48397;53.016;-2.260;2023-03-13T08:44:04;10.20;99.90
44671;DHT22;48397;53.016;-2.260;2023-03-13T08:46:34;10.30;99.90
44671;DHT22;48397;53.016;-2.260;2023-03-13T08:49:04;10.20;99.90
44671;DHT22;48397;53.016;-2.260;2023-03-13T08:51:33;10.30;99.90
44671;DHT22;48397;53.016;-2.260;2023-03-13T08:54:01;10.40;99.90
44671;DHT22;48397;53.016;-2.260;2023-03-13T08:56:30;10.60;99.90
44671;DHT22;48397;53.016;-2.260;2023-03-13T08:59:00;10.60;99.90
44671;DHT22;48397;53.016;-2.260;2023-03-13T09:01:30;10.70;99.90
44671;DHT22;48397;53.016;-2.260;2023-03-13T09:03:58;10.70;99.90
44671;DHT22;48397;53.016;-2.260;2023-03-13T09:06:35;10.80;99.90
44671;DHT22;48397;53.016;-2.260;2023-03-13T09:09:05;10.80;99.90
44671;DHT22;48397;53.016;-2.260;2023-03-13T09:11:35;10.80;99.90
44671;DHT22;48397;53.016;-2.260;2023-03-13T09:14:05;10.70;99.90
44671;DHT22;48397;53.016;-2.260;2023-03-13T09:16:33;10.70;99.90
44671;DHT22;48397;53.016;-2.260;2023-03-13T09:19:01;10.60;99.90
44671;DHT22;48397;53.016;-2.260;2023-03-13T09:21:31;10.70;99.90
44671;DHT22;48397;53.016;-2.260;2023-03-13T09:24:00;10.70;99.90
44671;DHT22;48397;53.016;-2.260;2023-03-13T09:26:28;10.50;99.90
44671;DHT22;48397;53.016;-2.260;2023-03-13T09:28:56;10.50;99.90
44671;DHT22;48397;53.016;-2.260;2023-03-13T09:31:29;10.50;99.90
44671;DHT22;48397;53.016;-2.260;2023-03-13T09:33:58;10.50;99.90
44671;DHT22;48397;53.016;-2.260;2023-03-13T09:36:26;10.40;99.90
44671;DHT22;48397;53.016;-2.260;2023-03-13T09:38:56;10.40;99.90
44671;DHT22;48397;53.016;-2.260;2023-03-13T09:46:42;10.40;99.90
44671;DHT22;48397;53.016;-2.260;2023-03-13T09:49:17;10.40;99.90
44671;DHT22;48397;53.016;-2.260;2023-03-13T09:51:53;10.40;99.90
44671;DHT22;48397;53.016;-2.260;2023-03-13T09:54:30;10.40;99.90
44671;DHT22;48397;53.016;-2.260;2023-03-13T10:02:50;10.20;99.90
44671;DHT22;48397;53.016;-2.260;2023-03-13T10:05:25;10.20;99.90
44671;DHT22;48397;53.016;-2.260;2023-03-13T10:08:13;10.20;99.90
44671;DHT22;48397;53.016;-2.260;2023-03-13T10:11:22;10.20;99.90
44671;DHT22;48397;53.016;-2.260;2023-03-13T10:14:05;10.30;99.90
44671;DHT22;48397;53.016;-2.260;2023-03-13T10:19:34;10.30;99.90
44671;DHT22;48397;53.016;-2.260;2023-03-13T10:22:18;10.40;99.90
44671;DHT22;48397;53.016;-2.260;2023-03-13T10:24:53;10.40;99.90
44671;DHT22;48397;53.016;-2.260;2023-03-13T10:27:21;10.50;99.90
44671;DHT22;48397;53.016;-2.260;2023-03-13T10:29:52;10.50;99.90
44671;DHT22;48397;53.016;-2.260;2023-03-13T10:32:19;10.60;99.90
44671;DHT22;48397;53.016;-2.260;2023-03-13T10:35:01;10.60;99.90
44671;DHT22;48397;53.016;-2.260;2023-03-13T10:37:31;10.60;99.90
44671;DHT22;48397;53.016;-2.260;2023-03-13T10:40:18;10.70;99.90
44671;DHT22;48397;53.016;-2.260;2023-03-13T10:45:18;10.60;99.90
44671;DHT22;48397;53.016;-2.260;2023-03-13T10:47:55;10.60;99.90
44671;DHT22;48397;53.016;-2.260;2023-03-13T10:50:25;10.60;99.90
44671;DHT22;48397;53.016;-2.260;2023-03-13T10:52:54;10.70;99.90
44671;DHT22;48397;53.016;-2.260;2023-03-13T10:55:23;10.70;99.90
44671;DHT22;48397;53.016;-2.260;2023-03-13T10:57:58;10.80;99.90
44671;DHT22;48397;53.016;-2.260;2023-03-13T11:02:59;10.50;99.90
44671;DHT22;48397;53.016;-2.260;2023-03-13T11:05:32;10.60;99.90
44671;DHT22;48397;53.016;-2.260;2023-03-13T11:08:21;10.70;99.90
44671;DHT22;48397;53.016;-2.260;2023-03-13T11:10:58;10.70;99.90
44671;DHT22;48397;53.016;-2.260;2023-03-13T11:13:33;10.70;99.90
44671;DHT22;48397;53.016;-2.260;2023-03-13T11:16:12;10.70;99.90
44671;DHT22;48397;53.016;-2.260;2023-03-13T11:21:23;10.80;99.90
44671;DHT22;48397;53.016;-2.260;2023-03-13T11:23:57;10.80;99.90
44671;DHT22;48397;53.016;-2.260;2023-03-13T11:26:36;10.80;99.90
44671;DHT22;48397;53.016;-2.260;2023-03-13T11:29:11;10.90;99.90
44671;DHT22;48397;53.016;-2.260;2023-03-13T11:31:52;10.80;99.90
44671;DHT22;48397;53.016;-2.260;2023-03-13T11:34:53;10.80;99.90
44671;DHT22;48397;53.016;-2.260;2023-03-13T11:37:21;10.80;99.90
44671;DHT22;48397;53.016;-2.260;2023-03-13T11:40:15;10.80;99.90
44671;DHT22;48397;53.016;-2.260;2023-03-13T11:43:15;10.80;99.90
44671;DHT22;48397;53.016;-2.260;2023-03-13T12:00:20;10.80;99.90
44671;DHT22;48397;53.016;-2.260;2023-03-13T12:03:05;10.80;99.90
44671;DHT22;48397;53.016;-2.260;2023-03-13T12:05:56;10.70;99.90
44671;DHT22;48397;53.016;-2.260;2023-03-13T12:08:44;10.80;99.90
44671;DHT22;48397;53.016;-2.260;2023-03-13T12:11:38;10.80;99.90
44671;DHT22;48397;53.016;-2.260;2023-03-13T12:14:10;10.90;99.90
44671;DHT22;48397;53.016;-2.260;2023-03-13T12:17:02;10.90;99.90
44671;DHT22;48397;53.016;-2.260;2023-03-13T12:19:42;11.00;99.90
44671;DHT22;48397;53.016;-2.260;2023-03-13T12:22:23;11.00;99.90
44671;DHT22;48397;53.016;-2.260;2023-03-13T12:25:23;11.20;99.90
44671;DHT22;48397;53.016;-2.260;2023-03-13T12:28:02;11.30;99.90
44671;DHT22;48397;53.016;-2.260;2023-03-13T12:30:55;11.20;99.90
44671;DHT22;48397;53.016;-2.260;2023-03-13T12:33:33;11.30;99.90
44671;DHT22;48397;53.016;-2.260;2023-03-13T12:36:25;11.40;99.90
44671;DHT22;48397;53.016;-2.260;2023-03-13T12:44:44;12.00;99.90
44671;DHT22;48397;53.016;-2.260;2023-03-13T12:47:32;12.00;99.90
44671;DHT22;48397;53.016;-2.260;2023-03-13T12:58:56;12.40;99.90
44671;DHT22;48397;53.016;-2.260;2023-03-13T13:03:55;12.40;99.90
44671;DHT22;48397;53.016;-2.260;2023-03-13T13:06:28;12.30;99.90
44671;DHT22;48397;53.016;-2.260;2023-03-13T13:09:26;12.20;99.90
44671;DHT22;48397;53.016;-2.260;2023-03-13T13:11:57;12.10;99.90
44671;DHT22;48397;53.016;-2.260;2023-03-13T13:17:01;12.00;99.90
44671;DHT22;48397;53.016;-2.260;2023-03-13T13:32:53;11.80;99.90
44671;DHT22;48397;53.016;-2.260;2023-03-13T13:35:34;11.70;99.90
44671;DHT22;48397;53.016;-2.260;2023-03-13T13:38:28;11.70;99.90
44671;DHT22;48397;53.016;-2.260;2023-03-13T13:41:25;11.70;99.90
44671;DHT22;48397;53.016;-2.260;2023-03-13T13:44:24;11.80;99.90
44671;DHT22;48397;53.016;-2.260;2023-03-13T13:46:54;11.80;99.90
44671;DHT22;48397;53.016;-2.260;2023-03-13T13:49:28;11.80;99.90
44671;DHT22;48397;53.016;-2.260;2023-03-13T13:54:32;11.80;99.90
44671;DHT22;48397;53.016;-2.260;2023-03-13T13:57:07;11.80;99.90
44671;DHT22;48397;53.016;-2.260;2023-03-13T14:00:17;11.80;99.90
44671;DHT22;48397;53.016;-2.260;2023-03-13T14:02:55;11.70;99.90
44671;DHT22;48397;53.016;-2.260;2023-03-13T14:05:31;11.70;99.90
44671;DHT22;48397;53.016;-2.260;2023-03-13T14:08:05;11.70;99.90
44671;DHT22;48397;53.016;-2.260;2023-03-13T14:10:44;11.60;99.90
44671;DHT22;48397;53.016;-2.260;2023-03-13T14:13:16;11.70;99.90
44671;DHT22;48397;53.016;-2.260;2023-03-13T14:15:46;11.60;99.90
44671;DHT22;48397;53.016;-2.260;2023-03-13T14:18:24;11.60;99.90
44671;DHT22;48397;53.016;-2.260;2023-03-13T14:23:36;11.90;99.90
44671;DHT22;48397;53.016;-2.260;2023-03-13T14:29:00;12.00;99.90
44671;DHT22;48397;53.016;-2.260;2023-03-13T14:31:36;11.90;99.90
44671;DHT22;48397;53.016;-2.260;2023-03-13T14:34:08;11.80;99.90
44671;DHT22;48397;53.016;-2.260;2023-03-13T14:36:55;11.50;99.90
44671;DHT22;48397;53.016;-2.260;2023-03-13T14:39:44;11.40;99.90
44671;DHT22;48397;53.016;-2.260;2023-03-13T14:42:15;11.10;99.90
44671;DHT22;48397;53.016;-2.260;2023-03-13T14:44:44;11.00;99.90
44671;DHT22;48397;53.016;-2.260;2023-03-13T14:47:28;11.00;99.90
44671;DHT22;48397;53.016;-2.260;2023-03-13T14:50:03;10.90;99.90
44671;DHT22;48397;53.016;-2.260;2023-03-13T14:52:36;10.80;99.90
44671;DHT22;48397;53.016;-2.260;2023-03-13T14:55:25;10.90;99.90
44671;DHT22;48397;53.016;-2.260;2023-03-13T15:05:45;10.80;99.90
44671;DHT22;48397;53.016;-2.260;2023-03-13T15:08:16;10.80;99.90
44671;DHT22;48397;53.016;-2.260;2023-03-13T15:10:45;10.80;99.90
44671;DHT22;48397;53.016;-2.260;2023-03-13T15:13:16;10.70;99.90
44671;DHT22;48397;53.016;-2.260;2023-03-13T15:15:46;10.70;99.90
44671;DHT22;48397;53.016;-2.260;2023-03-13T15:20:50;10.70;99.90
44671;DHT22;48397;53.016;-2.260;2023-03-13T15:23:18;10.80;99.90
44671;DHT22;48397;53.016;-2.260;2023-03-13T15:25:47;10.80;99.90
44671;DHT22;48397;53.016;-2.260;2023-03-13T15:28:21;10.90;99.90
44671;DHT22;48397;53.016;-2.260;2023-03-13T15:30:50;10.90;99.90
44671;DHT22;48397;53.016;-2.260;2023-03-13T15:33:23;11.00;99.90
44671;DHT22;48397;53.016;-2.260;2023-03-13T15:35:52;11.10;99.90
44671;DHT22;48397;53.016;-2.260;2023-03-13T15:38:22;11.20;99.90
44671;DHT22;48397;53.016;-2.260;2023-03-13T15:40:50;11.20;99.90
44671;DHT22;48397;53.016;-2.260;2023-03-13T15:43:19;11.30;99.90
44671;DHT22;48397;53.016;-2.260;2023-03-13T15:45:49;11.20;99.90
44671;DHT22;48397;53.016;-2.260;2023-03-13T15:51:00;11.30;99.90
44671;DHT22;48397;53.016;-2.260;2023-03-13T15:53:29;11.40;99.90
44671;DHT22;48397;53.016;-2.260;2023-03-13T15:56:01;11.40;99.90
44671;DHT22;48397;53.016;-2.260;2023-03-13T15:58:29;11.30;99.90
44671;DHT22;48397;53.016;-2.260;2023-03-13T16:00:57;11.40;99.90
44671;DHT22;48397;53.016;-2.260;2023-03-13T16:03:26;11.30;99.90
44671;DHT22;48397;53.016;-2.260;2023-03-13T16:05:56;11.20;99.90
44671;DHT22;48397;53.016;-2.260;2023-03-13T16:08:26;11.20;99.90
44671;DHT22;48397;53.016;-2.260;2023-03-13T16:11:03;11.20;99.90
44671;DHT22;48397;53.016;-2.260;2023-03-13T16:13:31;11.20;99.90
44671;DHT22;48397;53.016;-2.260;2023-03-13T16:15:59;11.20;99.90
44671;DHT22;48397;53.016;-2.260;2023-03-13T16:18:27;11.20;99.90
44671;DHT22;48397;53.016;-2.260;2023-03-13T16:20:55;11.20;99.90
44671;DHT22;48397;53.016;-2.260;2023-03-13T16:23:22;11.20;99.90
44671;DHT22;48397;53.016;-2.260;2023-03-13T16:25:50;11.20;99.90
44671;DHT22;48397;53.016;-2.260;2023-03-13T16:28:18;11.10;99.90
44671;DHT22;48397;53.016;-2.260;2023-03-13T16:30:46;11.10;99.90
44671;DHT22;48397;53.016;-2.260;2023-03-13T16:33:16;11.10;99.90
44671;DHT22;48397;53.016;-2.260;2023-03-13T16:35:44;11.10;99.90
44671;DHT22;48397;53.016;-2.260;2023-03-13T16:38:12;11.10;99.90
44671;DHT22;48397;53.016;-2.260;2023-03-13T16:40:39;11.20;99.90
44671;DHT22;48397;53.016;-2.260;2023-03-13T16:43:11;11.20;99.90
44671;DHT22;48397;53.016;-2.260;2023-03-13T16:45:39;11.30;99.90
44671;DHT22;48397;53.016;-2.260;2023-03-13T16:48:09;11.30;99.90
44671;DHT22;48397;53.016;-2.260;2023-03-13T16:50:41;11.30;99.90
44671;DHT22;48397;53.016;-2.260;2023-03-13T16:55:40;11.30;99.90
44671;DHT22;48397;53.016;-2.260;2023-03-13T16:58:10;11.30;99.90
44671;DHT22;48397;53.016;-2.260;2023-03-13T17:00:40;11.30;99.90
44671;DHT22;48397;53.016;-2.260;2023-03-13T17:03:07;11.30;99.90
44671;DHT22;48397;53.016;-2.260;2023-03-13T17:05:35;13.90;99.90
44671;DHT22;48397;53.016;-2.260;2023-03-13T17:08:03;11.10;99.90
44671;DHT22;48397;53.016;-2.260;2023-03-13T17:10:31;11.20;99.90
44671;DHT22;48397;53.016;-2.260;2023-03-13T17:15:28;11.30;99.90
44671;DHT22;48397;53.016;-2.260;2023-03-13T17:17:55;11.30;99.90
44671;DHT22;48397;53.016;-2.260;2023-03-13T17:20:25;11.30;99.90
44671;DHT22;48397;53.016;-2.260;2023-03-13T17:22:53;11.30;99.90
44671;DHT22;48397;53.016;-2.260;2023-03-13T17:25:24;11.30;99.90
44671;DHT22;48397;53.016;-2.260;2023-03-13T17:27:53;11.30;99.90
44671;DHT22;48397;53.016;-2.260;2023-03-13T17:30:23;11.30;99.90
44671;DHT22;48397;53.016;-2.260;2023-03-13T17:32:51;11.30;99.90
44671;DHT22;48397;53.016;-2.260;2023-03-13T17:35:20;11.30;99.90
44671;DHT22;48397;53.016;-2.260;2023-03-13T17:37:48;11.30;99.90
44671;DHT22;48397;53.016;-2.260;2023-03-13T17:40:19;11.30;99.90
44671;DHT22;48397;53.016;-2.260;2023-03-13T17:42:47;11.20;99.90
44671;DHT22;48397;53.016;-2.260;2023-03-13T17:45:15;11.10;99.90
44671;DHT22;48397;53.016;-2.260;2023-03-13T17:47:44;11.00;99.90
44671;DHT22;48397;53.016;-2.260;2023-03-13T17:50:15;10.90;99.90
44671;DHT22;48397;53.016;-2.260;2023-03-13T17:52:43;10.80;99.90
44671;DHT22;48397;53.016;-2.260;2023-03-13T17:55:11;10.70;99.90